Terminal Aerodrome Forecast
Issued by NWS St Louis, MO

Home | Current Version | Previous Version | Text Only | Print | Product List | Glossary On
Versions: 1 2 3 4 5 6 7 8 9 10 11 12 13 14 15 16 17 18 19 20 21 22 23 24
749
FTUS43 KLSX 300421 AAC
TAFCOU
TAF AMD
KCOU 300421Z 3004/3024 09012KT 6SM -SHRA VCTS OVC015CB
     FM300600 10013KT 4SM -SHRA BR VCTS OVC010CB
     FM301200 14013KT 6SM BR BKN010
     FM301800 22011KT P6SM BKN035=

USA.gov is the U.S. government's official web portal to all federal, state and local government web resources and services.